createdAt,value
2023-11-27T00:00:53.900Z,7.27
2023-11-27T00:03:21.274Z,7.60
2023-11-27T00:05:48.360Z,7.20
2023-11-27T00:08:15.637Z,7.83
2023-11-27T00:10:43.503Z,7.73
2023-11-27T00:13:10.576Z,8.10
2023-11-27T00:15:37.436Z,8.27
2023-11-27T00:18:04.569Z,8.40
2023-11-27T00:20:31.533Z,7.33
2023-11-27T00:22:58.390Z,7.73
2023-11-27T00:25:25.314Z,7.57
2023-11-27T00:27:52.175Z,7.33
2023-11-27T00:30:19.069Z,7.60
2023-11-27T00:32:46.097Z,7.80
2023-11-27T00:35:13.218Z,7.80
2023-11-27T00:37:40.138Z,7.73
2023-11-27T00:40:07.740Z,7.53
2023-11-27T00:42:35.220Z,6.67
2023-11-27T00:45:02.120Z,7.10
2023-11-27T00:47:29.329Z,7.53
2023-11-27T00:49:57.439Z,7.50
2023-11-27T00:52:24.403Z,7.30
2023-11-27T00:54:51.282Z,8.23
2023-11-27T00:57:18.304Z,7.73
2023-11-27T00:59:45.137Z,6.93
2023-11-27T01:02:12.183Z,6.83
2023-11-27T01:04:40.492Z,7.57
2023-11-27T01:07:07.815Z,7.37
2023-11-27T01:09:37.152Z,6.77
2023-11-27T01:12:04.858Z,7.20
2023-11-27T01:14:32.458Z,7.63
2023-11-27T01:17:00.095Z,7.23
2023-11-27T01:19:27.528Z,7.10
2023-11-27T01:21:54.663Z,7.43
2023-11-27T01:24:24.238Z,7.07
2023-11-27T01:26:53.249Z,6.83
2023-11-27T01:29:22.795Z,6.50
2023-11-27T01:31:50.429Z,6.83
2023-11-27T01:34:17.843Z,7.10
2023-11-27T01:36:45.368Z,6.47
2023-11-27T01:39:12.521Z,7.33
2023-11-27T01:41:39.861Z,7.27
2023-11-27T01:44:06.804Z,6.87
2023-11-27T01:46:34.234Z,6.97
2023-11-27T01:49:01.479Z,6.50
2023-11-27T01:51:29.475Z,7.40
2023-11-27T01:54:01.600Z,6.33
2023-11-27T01:56:31.362Z,6.23
2023-11-27T01:59:00.300Z,6.37
2023-11-27T02:01:29.477Z,5.90
2023-11-27T02:03:56.629Z,5.83
2023-11-27T02:06:24.378Z,6.17
2023-11-27T02:08:51.413Z,6.50
2023-11-27T02:11:20.280Z,6.13
2023-11-27T02:13:47.506Z,6.30
2023-11-27T02:16:17.291Z,6.03
2023-11-27T02:18:44.839Z,6.63
2023-11-27T02:21:12.778Z,6.00
2023-11-27T02:23:39.973Z,5.20
2023-11-27T02:26:07.575Z,6.00
2023-11-27T02:28:34.582Z,5.57
2023-11-27T02:31:01.994Z,5.03
2023-11-27T02:33:29.033Z,5.87
2023-11-27T02:35:55.888Z,5.27
2023-11-27T02:38:22.853Z,5.80
2023-11-27T02:40:51.823Z,5.83
2023-11-27T02:43:19.334Z,5.40
2023-11-27T02:45:46.775Z,5.00
2023-11-27T02:48:13.797Z,5.00
2023-11-27T02:50:40.664Z,4.53
2023-11-27T02:53:07.507Z,5.00
2023-11-27T02:55:34.424Z,4.83
2023-11-27T02:58:01.402Z,5.00
2023-11-27T03:00:28.342Z,5.07
2023-11-27T03:02:56.072Z,4.70
2023-11-27T03:05:22.991Z,4.83
2023-11-27T03:07:49.842Z,4.73
2023-11-27T03:10:16.806Z,4.70
2023-11-27T03:12:44.938Z,4.60
2023-11-27T03:15:12.181Z,4.67
2023-11-27T03:17:42.182Z,4.80
2023-11-27T03:20:12.036Z,4.50
2023-11-27T03:22:39.633Z,4.30
2023-11-27T03:25:06.931Z,4.47
2023-11-27T03:27:33.907Z,4.70
2023-11-27T03:30:04.673Z,4.70
2023-11-27T03:32:33.290Z,4.80
2023-11-27T03:35:01.470Z,4.90
2023-11-27T03:37:30.261Z,4.93
2023-11-27T03:39:57.330Z,4.83
2023-11-27T03:42:24.340Z,5.67
2023-11-27T03:44:51.226Z,5.40
2023-11-27T03:47:18.286Z,5.30
2023-11-27T03:49:45.271Z,4.70
2023-11-27T03:52:12.358Z,5.50
2023-11-27T03:54:39.180Z,5.30
2023-11-27T03:57:06.584Z,5.20
2023-11-27T03:59:33.609Z,5.63
2023-11-27T04:02:01.706Z,5.07
2023-11-27T04:04:28.682Z,5.60
2023-11-27T04:06:55.942Z,5.83
2023-11-27T04:09:23.581Z,6.73
2023-11-27T04:11:50.713Z,5.43
2023-11-27T04:14:18.486Z,5.23
2023-11-27T04:16:45.643Z,5.63
2023-11-27T04:19:12.575Z,5.70
2023-11-27T04:21:39.598Z,5.13
2023-11-27T04:24:08.178Z,5.53
2023-11-27T04:26:35.499Z,5.40
2023-11-27T04:29:04.027Z,4.73
2023-11-27T04:31:31.341Z,5.33
2023-11-27T04:33:58.314Z,4.70
2023-11-27T04:36:25.428Z,5.27
2023-11-27T04:38:52.440Z,5.40
2023-11-27T04:41:20.713Z,5.27
2023-11-27T04:43:47.914Z,5.13
2023-11-27T04:46:15.292Z,5.50
2023-11-27T04:48:42.606Z,5.43
2023-11-27T04:51:09.839Z,5.87
2023-11-27T04:53:37.141Z,6.03
2023-11-27T04:56:05.482Z,5.20
2023-11-27T04:58:32.385Z,5.43
2023-11-27T05:01:00.134Z,6.03
2023-11-27T05:03:28.205Z,6.67
2023-11-27T05:05:59.340Z,5.70
2023-11-27T05:08:27.095Z,5.50
2023-11-27T05:10:55.201Z,5.60
2023-11-27T05:13:22.563Z,5.57
2023-11-27T05:15:49.707Z,5.60
2023-11-27T05:18:16.761Z,5.37
2023-11-27T05:20:43.788Z,5.00
2023-11-27T05:23:10.780Z,4.83
2023-11-27T05:25:37.742Z,4.67
2023-11-27T05:28:05.448Z,4.83
2023-11-27T05:30:32.584Z,5.40
2023-11-27T05:32:59.583Z,4.93
2023-11-27T05:35:27.047Z,5.60
2023-11-27T05:37:54.512Z,5.37
2023-11-27T05:40:22.282Z,5.53
2023-11-27T05:42:49.712Z,5.17
2023-11-27T05:45:16.884Z,4.93
2023-11-27T05:47:44.411Z,4.77
2023-11-27T05:50:13.683Z,4.77
2023-11-27T05:52:40.834Z,4.70
2023-11-27T05:55:08.404Z,5.40
2023-11-27T05:57:35.753Z,4.90
2023-11-27T06:00:07.298Z,4.90
2023-11-27T06:02:40.293Z,4.90
2023-11-27T06:05:07.599Z,4.83
2023-11-27T06:07:37.288Z,5.10
2023-11-27T06:10:04.997Z,5.10
2023-11-27T06:12:32.257Z,4.97
2023-11-27T06:14:59.175Z,4.83
2023-11-27T06:17:26.468Z,5.30
2023-11-27T06:19:53.606Z,5.43
2023-11-27T06:22:20.502Z,6.87
2023-11-27T06:24:49.177Z,6.30
2023-11-27T06:27:16.583Z,7.50
2023-11-27T06:29:43.556Z,7.35
2023-11-27T06:32:10.544Z,7.10
2023-11-27T06:34:37.587Z,7.40
2023-11-27T06:37:04.570Z,7.20
2023-11-27T06:39:33.511Z,7.67
2023-11-27T06:42:01.154Z,6.57
2023-11-27T06:44:28.014Z,7.13
2023-11-27T06:46:56.060Z,8.00
2023-11-27T06:49:23.132Z,9.00
2023-11-27T06:51:50.040Z,9.50
2023-11-27T06:54:16.913Z,9.07
2023-11-27T06:56:44.217Z,8.57
2023-11-27T06:59:11.068Z,7.50
2023-11-27T07:01:45.179Z,8.27
2023-11-27T07:04:12.503Z,8.23
2023-11-27T07:06:40.659Z,7.43
2023-11-27T07:09:08.333Z,6.37
2023-11-27T07:11:36.592Z,7.00
2023-11-27T07:14:04.359Z,7.17
2023-11-27T07:16:31.919Z,5.70
2023-11-27T07:18:59.140Z,5.27
2023-11-27T07:21:27.117Z,4.17
2023-11-27T07:23:57.724Z,5.43
2023-11-27T07:26:26.700Z,4.93
2023-11-27T07:28:57.258Z,4.57
2023-11-27T07:31:29.207Z,4.83
2023-11-27T07:33:56.697Z,4.47
2023-11-27T07:36:23.779Z,4.70
2023-11-27T07:38:51.965Z,4.40
2023-11-27T07:41:22.667Z,4.40
2023-11-27T07:43:51.323Z,4.50
2023-11-27T07:46:18.797Z,4.13
2023-11-27T07:48:47.600Z,4.80
2023-11-27T07:51:14.539Z,4.47
2023-11-27T07:53:41.518Z,4.50
2023-11-27T07:56:08.915Z,7.33
2023-11-27T07:58:38.025Z,6.40
2023-11-27T08:01:05.250Z,7.33
2023-11-27T08:03:37.300Z,7.20
2023-11-27T08:06:04.733Z,5.47
2023-11-27T08:08:31.668Z,4.70
2023-11-27T08:10:59.729Z,4.63
2023-11-27T08:13:26.733Z,4.50
2023-11-27T08:15:54.991Z,4.53
2023-11-27T08:18:22.167Z,4.70
2023-11-27T08:20:51.039Z,5.27
2023-11-27T08:23:18.080Z,4.77
2023-11-27T08:25:45.880Z,4.77
2023-11-27T08:28:13.109Z,5.03
2023-11-27T08:30:43.089Z,4.60
2023-11-27T08:33:10.202Z,4.80
2023-11-27T08:35:37.189Z,4.13
2023-11-27T08:38:05.540Z,4.33
2023-11-27T08:40:32.621Z,4.80
2023-11-27T08:43:01.419Z,5.07
2023-11-27T08:45:28.510Z,5.07
2023-11-27T08:47:56.564Z,4.23
2023-11-27T08:50:26.911Z,4.47
2023-11-27T08:52:59.935Z,4.47
2023-11-27T08:55:33.650Z,4.10
2023-11-27T08:58:05.159Z,4.57
2023-11-27T09:00:33.078Z,4.30
2023-11-27T09:03:01.904Z,3.80
2023-11-27T09:05:33.102Z,4.33
2023-11-27T09:08:05.961Z,3.87
2023-11-27T09:10:33.687Z,4.00
2023-11-27T09:13:00.844Z,3.60
2023-11-27T09:15:27.817Z,3.97
2023-11-27T09:17:54.732Z,3.60
2023-11-27T09:20:21.715Z,4.00
2023-11-27T09:22:48.601Z,4.00
2023-11-27T09:25:16.523Z,3.60
2023-11-27T09:27:43.646Z,3.37
2023-11-27T09:30:11.652Z,4.17
2023-11-27T09:32:39.510Z,3.87
2023-11-27T09:35:11.908Z,3.73
2023-11-27T09:37:40.166Z,4.27
2023-11-27T09:40:09.782Z,3.67
2023-11-27T09:42:45.873Z,3.63
2023-11-27T09:45:17.511Z,3.90
2023-11-27T09:47:45.173Z,4.17
2023-11-27T09:50:14.141Z,3.77
2023-11-27T09:53:06.949Z,3.70
2023-11-27T09:55:36.374Z,3.90
2023-11-27T09:58:04.156Z,4.13
2023-11-27T10:00:32.141Z,4.03
2023-11-27T10:03:00.103Z,3.77
2023-11-27T10:05:27.183Z,4.30
2023-11-27T10:07:55.413Z,3.60
2023-11-27T10:10:32.054Z,3.63
2023-11-27T10:13:04.417Z,3.60
2023-11-27T10:15:36.541Z,4.10
2023-11-27T10:18:06.253Z,3.83
2023-11-27T10:20:34.098Z,4.00
2023-11-27T10:23:03.565Z,3.60
2023-11-27T10:25:30.893Z,3.63
2023-11-27T10:27:59.252Z,3.63
2023-11-27T10:30:28.648Z,3.90
2023-11-27T10:32:55.572Z,4.20
2023-11-27T10:35:25.688Z,3.60
2023-11-27T10:37:55.416Z,3.20
2023-11-27T10:40:23.315Z,3.50
2023-11-27T10:42:51.871Z,3.37
2023-11-27T10:45:20.189Z,3.20
2023-11-27T10:47:49.448Z,3.20
2023-11-27T10:50:17.954Z,3.00
2023-11-27T10:52:49.620Z,3.10
2023-11-27T10:55:20.684Z,3.40
2023-11-27T10:57:51.489Z,3.40
2023-11-27T11:00:40.536Z,3.27
2023-11-27T11:03:16.481Z,3.40
2023-11-27T11:05:52.622Z,3.70
2023-11-27T11:08:28.299Z,3.50
2023-11-27T11:10:56.494Z,2.57
2023-11-27T11:13:25.942Z,2.90
2023-11-27T11:16:02.137Z,3.20
2023-11-27T11:18:55.957Z,2.60
2023-11-27T11:22:02.370Z,2.70
2023-11-27T11:25:17.571Z,2.70
2023-11-27T11:28:16.279Z,2.97
2023-11-27T11:30:43.372Z,2.50
2023-11-27T11:33:19.608Z,2.47
2023-11-27T11:35:51.116Z,2.20
2023-11-27T11:38:21.927Z,2.93
2023-11-27T11:40:49.693Z,2.47
2023-11-27T11:43:19.715Z,1.80
2023-11-27T11:45:50.794Z,1.87
2023-11-27T11:48:19.997Z,2.00
2023-11-27T11:50:48.522Z,2.03
2023-11-27T11:53:15.607Z,1.90
2023-11-27T11:55:42.923Z,1.90
2023-11-27T11:58:30.001Z,1.90
2023-11-27T12:01:09.993Z,1.90
2023-11-27T12:03:37.743Z,1.70
2023-11-27T12:06:14.812Z,1.40
2023-11-27T12:08:49.842Z,1.10
2023-11-27T12:11:16.925Z,1.47
2023-11-27T12:13:44.988Z,1.70
2023-11-27T12:16:13.957Z,1.50
2023-11-27T12:18:47.946Z,1.53
2023-11-27T12:21:18.124Z,1.80
2023-11-27T12:23:49.826Z,0.97
2023-11-27T12:26:26.371Z,1.40
2023-11-27T12:28:54.846Z,1.43
2023-11-27T12:31:23.811Z,1.43
2023-11-27T12:33:52.567Z,1.47
2023-11-27T12:36:22.960Z,1.30
2023-11-27T12:38:56.007Z,1.50
2023-11-27T12:41:33.163Z,1.27
2023-11-27T12:44:14.919Z,1.20
2023-11-27T12:46:49.500Z,1.40
2023-11-27T12:49:27.675Z,1.00
2023-11-27T12:51:58.981Z,1.27
2023-11-27T12:54:28.824Z,1.43
2023-11-27T12:57:03.275Z,1.30
2023-11-27T12:59:30.254Z,1.60
2023-11-27T13:02:00.523Z,1.67
2023-11-27T13:04:31.222Z,2.03
2023-11-27T13:07:06.960Z,1.60
2023-11-27T13:09:34.640Z,1.60
2023-11-27T13:12:15.943Z,1.67
2023-11-27T13:14:46.804Z,1.80
2023-11-27T13:17:25.863Z,1.93
2023-11-27T13:19:54.866Z,1.73
2023-11-27T13:22:23.892Z,2.07
2023-11-27T13:24:52.008Z,2.20
2023-11-27T13:27:22.093Z,1.67
2023-11-27T13:29:51.729Z,2.10
2023-11-27T13:32:19.349Z,2.40
2023-11-27T13:34:56.899Z,2.67
2023-11-27T13:37:35.863Z,2.13
2023-11-27T13:40:04.497Z,2.23
2023-11-27T13:42:32.444Z,2.87
2023-11-27T13:45:01.029Z,2.20
2023-11-27T13:47:28.063Z,2.10
2023-11-27T13:49:56.793Z,1.93
2023-11-27T13:52:30.712Z,1.87
2023-11-27T13:55:00.534Z,2.20
2023-11-27T13:57:29.093Z,2.30
2023-11-27T14:00:01.015Z,1.90
2023-11-27T14:02:30.019Z,2.23
2023-11-27T14:05:07.839Z,2.20
2023-11-27T14:07:41.984Z,2.20
2023-11-27T14:10:24.446Z,2.20
2023-11-27T14:13:02.210Z,2.20
2023-11-27T14:15:40.283Z,2.37
2023-11-27T14:18:22.767Z,2.30
2023-11-27T14:21:14.024Z,2.80
2023-11-27T14:23:40.892Z,3.00
2023-11-27T14:26:11.700Z,3.30
2023-11-27T14:28:48.084Z,3.23
2023-11-27T14:31:23.239Z,4.13
2023-11-27T14:33:51.624Z,3.50
2023-11-27T14:36:18.743Z,3.27
2023-11-27T14:38:49.829Z,3.83
2023-11-27T14:41:18.410Z,3.07
2023-11-27T14:43:45.560Z,2.87
2023-11-27T14:46:16.069Z,2.67
2023-11-27T14:48:44.218Z,3.37
2023-11-27T14:51:11.248Z,2.83
2023-11-27T14:53:44.015Z,2.50
2023-11-27T14:56:11.822Z,3.20
2023-11-27T14:58:38.783Z,2.13
2023-11-27T15:01:10.544Z,2.40
2023-11-27T15:03:40.904Z,3.43
2023-11-27T15:06:09.140Z,3.50
2023-11-27T15:08:36.234Z,4.07
2023-11-27T15:11:06.471Z,4.10
2023-11-27T15:13:36.897Z,3.10
2023-11-27T15:16:04.702Z,2.73
2023-11-27T15:18:32.856Z,2.80
2023-11-27T15:20:59.892Z,3.27
2023-11-27T15:23:26.720Z,3.33
2023-11-27T15:25:53.943Z,3.47
2023-11-27T15:28:24.339Z,3.93
2023-11-27T15:30:59.244Z,5.00
2023-11-27T15:33:26.734Z,4.97
2023-11-27T15:35:55.431Z,4.83
2023-11-27T15:38:26.075Z,5.10
2023-11-27T15:40:53.154Z,6.80
2023-11-27T15:43:22.228Z,12.47
2023-11-27T15:45:49.362Z,6.93
2023-11-27T15:48:16.463Z,5.70
2023-11-27T15:50:43.475Z,5.80
2023-11-27T15:53:14.070Z,11.33
2023-11-27T15:55:41.502Z,7.10
2023-11-27T15:58:10.931Z,6.27
2023-11-27T16:00:38.084Z,7.87
2023-11-27T16:03:05.093Z,7.00
2023-11-27T16:05:32.729Z,6.10
2023-11-27T16:08:00.931Z,12.20
2023-11-27T16:10:30.803Z,7.10
2023-11-27T16:12:57.785Z,4.87
2023-11-27T16:15:27.607Z,7.17
2023-11-27T16:18:00.041Z,7.00
2023-11-27T16:20:28.365Z,17.03
2023-11-27T16:22:56.016Z,12.97
2023-11-27T16:25:23.713Z,11.10
2023-11-27T16:27:52.192Z,8.40
2023-11-27T16:30:22.433Z,10.87
2023-11-27T16:32:50.974Z,10.90
2023-11-27T16:35:29.587Z,12.57
2023-11-27T16:37:56.498Z,15.90
2023-11-27T16:40:23.533Z,11.57
2023-11-27T16:42:52.749Z,31.87
2023-11-27T16:45:23.508Z,12.60
2023-11-27T16:47:54.480Z,12.67
2023-11-27T16:50:25.652Z,17.67
2023-11-27T16:52:59.012Z,18.47
2023-11-27T16:55:30.765Z,16.70
2023-11-27T16:58:06.339Z,11.80
2023-11-27T17:00:34.460Z,11.87
2023-11-27T17:03:07.641Z,9.93
2023-11-27T17:05:35.048Z,9.97
2023-11-27T17:08:11.833Z,10.13
2023-11-27T17:10:41.622Z,17.47
2023-11-27T17:13:15.442Z,12.40
2023-11-27T17:15:46.189Z,14.53
2023-11-27T17:18:14.445Z,12.03
2023-11-27T17:20:44.659Z,16.57
2023-11-27T17:23:12.469Z,14.83
2023-11-27T17:25:40.112Z,22.83
2023-11-27T17:28:11.051Z,59.60
2023-11-27T17:30:44.319Z,35.40
2023-11-27T17:33:11.781Z,12.70
2023-11-27T17:35:39.886Z,9.57
2023-11-27T17:38:07.661Z,7.97
2023-11-27T17:40:35.340Z,11.73
2023-11-27T17:43:02.895Z,11.00
2023-11-27T17:45:29.849Z,8.57
2023-11-27T17:48:00.613Z,43.77
2023-11-27T17:50:30.279Z,43.10
2023-11-27T17:52:57.484Z,25.43
2023-11-27T17:55:30.112Z,12.97
2023-11-27T17:58:01.005Z,25.23
2023-11-27T18:00:28.561Z,11.63
2023-11-27T18:02:56.473Z,31.50
2023-11-27T18:05:24.791Z,11.30
2023-11-27T18:08:03.512Z,15.40
2023-11-27T18:10:33.588Z,10.07
2023-11-27T18:13:02.054Z,7.87
2023-11-27T18:15:29.060Z,13.80
2023-11-27T18:17:55.991Z,9.00
2023-11-27T18:20:23.843Z,18.47
2023-11-27T18:22:52.742Z,12.90
2023-11-27T18:25:22.703Z,16.60
2023-11-27T18:27:50.944Z,34.57
2023-11-27T18:30:18.397Z,18.17
2023-11-27T18:32:45.830Z,12.70
2023-11-27T18:35:13.930Z,10.77
2023-11-27T18:37:42.374Z,10.27
2023-11-27T18:40:11.201Z,17.07
2023-11-27T18:42:42.145Z,12.23
2023-11-27T18:45:11.277Z,18.40
2023-11-27T18:47:40.630Z,15.00
2023-11-27T18:50:08.679Z,27.07
2023-11-27T18:52:36.501Z,36.00
2023-11-27T18:55:04.314Z,26.30
2023-11-27T18:57:32.284Z,19.50
2023-11-27T18:59:59.188Z,16.40
2023-11-27T19:02:27.167Z,17.43
2023-11-27T19:04:54.278Z,19.33
2023-11-27T19:07:21.372Z,25.60
2023-11-27T19:09:48.283Z,13.17
2023-11-27T19:12:15.812Z,22.70
2023-11-27T19:14:44.492Z,12.00
2023-11-27T19:17:12.873Z,11.57
2023-11-27T19:19:39.922Z,11.37
2023-11-27T19:22:07.074Z,13.17
2023-11-27T19:24:34.792Z,13.30
2023-11-27T19:27:04.714Z,12.07
2023-11-27T19:29:31.905Z,16.83
2023-11-27T19:31:58.997Z,12.93
2023-11-27T19:34:26.087Z,47.23
2023-11-27T19:36:54.756Z,22.97
2023-11-27T19:39:21.914Z,15.33
2023-11-27T19:41:53.199Z,14.40
2023-11-27T19:44:21.740Z,16.47
2023-11-27T19:46:51.917Z,15.17
2023-11-27T19:49:21.026Z,14.00
2023-11-27T19:51:48.152Z,14.03
2023-11-27T19:54:19.452Z,13.87
2023-11-27T19:56:47.577Z,16.97
2023-11-27T19:59:15.488Z,16.80
2023-11-27T20:01:42.527Z,18.37
2023-11-27T20:04:09.579Z,15.60
2023-11-27T20:06:40.762Z,17.17
2023-11-27T20:09:12.794Z,15.80
2023-11-27T20:11:40.747Z,17.13
2023-11-27T20:14:08.140Z,16.73
2023-11-27T20:16:35.914Z,19.00
2023-11-27T20:19:05.840Z,17.83
2023-11-27T20:21:33.385Z,16.07
2023-11-27T20:24:01.392Z,16.60
2023-11-27T20:26:29.327Z,15.70
2023-11-27T20:28:59.224Z,16.83
2023-11-27T20:31:33.733Z,18.20
2023-11-27T20:34:04.781Z,19.03
2023-11-27T20:36:32.174Z,14.97
2023-11-27T20:39:00.913Z,16.50
2023-11-27T20:41:28.031Z,16.70
2023-11-27T20:43:58.466Z,9.13
2023-11-27T20:46:28.277Z,10.60
2023-11-27T20:48:59.369Z,6.73
2023-11-27T20:51:27.078Z,9.03
2023-11-27T20:53:54.190Z,4.20
2023-11-27T20:56:21.389Z,3.60
2023-11-27T20:58:49.921Z,3.77
2023-11-27T21:01:21.258Z,4.53
2023-11-27T21:03:49.744Z,2.63
2023-11-27T21:06:17.067Z,3.93
2023-11-27T21:08:43.930Z,3.00
2023-11-27T21:11:10.715Z,1.90
2023-11-27T21:13:37.805Z,1.70
2023-11-27T21:16:05.269Z,1.80
2023-11-27T21:18:34.025Z,1.60
2023-11-27T21:21:01.178Z,1.63
2023-11-27T21:23:28.594Z,2.33
2023-11-27T21:25:55.862Z,1.60
2023-11-27T21:28:25.396Z,1.97
2023-11-27T21:30:52.689Z,2.43
2023-11-27T21:33:19.656Z,1.50
2023-11-27T21:35:46.542Z,1.80
2023-11-27T21:38:14.315Z,2.53
2023-11-27T21:40:43.071Z,1.50
2023-11-27T21:43:10.361Z,1.43
2023-11-27T21:45:37.467Z,2.43
2023-11-27T21:48:04.926Z,1.97
2023-11-27T21:50:31.904Z,1.23
2023-11-27T21:52:58.770Z,1.47
2023-11-27T21:55:26.585Z,1.40
2023-11-27T21:57:53.658Z,1.50
2023-11-27T22:00:21.128Z,2.33
2023-11-27T22:02:48.324Z,1.80
2023-11-27T22:05:15.473Z,1.70
2023-11-27T22:07:42.389Z,1.53
2023-11-27T22:10:10.904Z,1.60
2023-11-27T22:12:37.935Z,1.57
2023-11-27T22:15:06.408Z,1.37
2023-11-27T22:17:33.400Z,1.60
2023-11-27T22:20:00.300Z,1.70
2023-11-27T22:22:27.218Z,1.60
2023-11-27T22:24:54.079Z,1.40
2023-11-27T22:27:20.977Z,1.60
2023-11-27T22:29:47.868Z,1.80
2023-11-27T22:32:14.893Z,1.80
2023-11-27T22:34:41.845Z,1.57
2023-11-27T22:37:08.683Z,1.70
2023-11-27T22:39:35.589Z,1.97
2023-11-27T22:42:02.429Z,2.10
2023-11-27T22:44:29.285Z,1.80
2023-11-27T22:46:56.316Z,1.90
2023-11-27T22:49:23.387Z,1.93
2023-11-27T22:51:50.305Z,2.07
2023-11-27T22:54:17.261Z,2.10
2023-11-27T22:56:44.312Z,1.70
2023-11-27T22:59:16.706Z,1.83
2023-11-27T23:01:46.474Z,1.83
2023-11-27T23:04:21.059Z,2.10
2023-11-27T23:06:48.622Z,1.50
2023-11-27T23:09:15.571Z,1.50
2023-11-27T23:11:47.386Z,1.60
2023-11-27T23:14:15.456Z,1.47
2023-11-27T23:16:43.571Z,1.50
2023-11-27T23:19:11.007Z,1.13
2023-11-27T23:21:39.018Z,1.53
2023-11-27T23:24:13.958Z,1.23
2023-11-27T23:26:44.695Z,1.20
2023-11-27T23:29:11.627Z,0.97
2023-11-27T23:31:39.163Z,1.00
2023-11-27T23:34:06.036Z,1.00
2023-11-27T23:36:33.145Z,0.87
2023-11-27T23:38:59.984Z,1.10
2023-11-27T23:41:28.011Z,1.10
2023-11-27T23:43:56.121Z,0.90
2023-11-27T23:46:23.241Z,1.00
2023-11-27T23:48:53.525Z,0.80
2023-11-27T23:51:25.618Z,1.00
2023-11-27T23:53:52.497Z,1.03
2023-11-27T23:56:19.745Z,2.97
2023-11-27T23:58:46.749Z,0.80
